createdAt,value
2019-01-25T00:01:38.808Z,2.77
2019-01-25T00:04:10.560Z,2.82
2019-01-25T00:06:40.066Z,2.87
2019-01-25T00:09:10.366Z,2.95
2019-01-25T00:11:39.823Z,3.00
2019-01-25T00:14:09.523Z,3.05
2019-01-25T00:16:38.994Z,2.99
2019-01-25T00:19:08.640Z,3.03
2019-01-25T00:21:38.158Z,3.07
2019-01-25T00:24:07.810Z,3.07
2019-01-25T00:26:37.785Z,3.09
2019-01-25T00:29:07.259Z,3.17
2019-01-25T00:31:36.733Z,3.13
2019-01-25T00:34:06.303Z,3.03
2019-01-25T00:36:35.865Z,3.05
2019-01-25T00:39:08.236Z,3.09
2019-01-25T00:41:37.815Z,3.04
2019-01-25T00:44:07.245Z,3.10
2019-01-25T00:46:36.718Z,3.16
2019-01-25T00:49:06.247Z,3.25
2019-01-25T00:51:35.792Z,3.18
2019-01-25T00:54:05.913Z,3.21
2019-01-25T00:56:35.426Z,3.29
2019-01-25T00:59:05.256Z,3.28
2019-01-25T01:01:34.772Z,3.18
2019-01-25T01:04:04.379Z,3.19
2019-01-25T01:06:33.883Z,3.18
2019-01-25T01:09:04.689Z,3.20
2019-01-25T01:11:34.151Z,3.33
2019-01-25T01:14:03.732Z,3.26
2019-01-25T01:16:33.177Z,3.24
2019-01-25T01:19:02.675Z,3.15
2019-01-25T01:21:32.145Z,3.13
2019-01-25T01:24:01.586Z,3.17
2019-01-25T01:26:31.089Z,3.19
2019-01-25T01:29:00.557Z,3.25
2019-01-25T01:31:30.453Z,3.27
2019-01-25T01:34:01.769Z,3.18
2019-01-25T01:36:31.249Z,3.14
2019-01-25T01:39:00.760Z,3.14
2019-01-25T01:41:30.266Z,3.06
2019-01-25T01:43:59.758Z,2.92
2019-01-25T01:46:29.265Z,2.97
2019-01-25T01:48:58.766Z,3.11
2019-01-25T01:51:28.275Z,3.10
2019-01-25T01:53:58.310Z,3.07
2019-01-25T01:56:27.839Z,3.09
2019-01-25T01:58:57.340Z,3.16
2019-01-25T02:01:26.817Z,3.19
2019-01-25T02:03:56.389Z,3.20
2019-01-25T02:06:25.914Z,3.29
2019-01-25T02:08:55.418Z,3.25
2019-01-25T02:11:24.931Z,3.22
2019-01-25T02:13:54.443Z,3.24
2019-01-25T02:16:23.945Z,3.25
2019-01-25T02:21:21.717Z,3.25
2019-01-25T02:23:51.198Z,3.25
2019-01-25T02:26:20.693Z,3.23
2019-01-25T02:28:50.229Z,3.23
2019-01-25T02:31:19.781Z,3.29
2019-01-25T02:33:49.245Z,3.22
2019-01-25T02:36:18.766Z,3.19
2019-01-25T02:38:48.268Z,3.21
2019-01-25T02:41:18.157Z,3.19
2019-01-25T02:43:47.644Z,3.26
2019-01-25T02:46:17.127Z,3.20
2019-01-25T02:48:46.665Z,3.23
2019-01-25T02:51:16.209Z,2.93
2019-01-25T02:53:45.695Z,2.99
2019-01-25T02:56:15.217Z,2.96
2019-01-25T02:58:44.778Z,2.96
2019-01-25T03:01:14.233Z,2.94
2019-01-25T03:03:43.751Z,3.00
2019-01-25T03:06:13.238Z,3.08
2019-01-25T03:08:42.700Z,3.06
2019-01-25T03:11:12.196Z,3.02
2019-01-25T03:13:41.701Z,3.01
2019-01-25T03:16:11.162Z,3.08
2019-01-25T03:18:40.657Z,3.06
2019-01-25T03:21:10.188Z,2.98
2019-01-25T03:23:39.681Z,2.99
2019-01-25T03:26:09.172Z,3.06
2019-01-25T03:28:38.691Z,3.16
2019-01-25T03:31:08.173Z,3.13
2019-01-25T03:33:37.616Z,3.20
2019-01-25T03:36:07.091Z,3.27
2019-01-25T03:38:36.670Z,3.27
2019-01-25T03:41:06.169Z,3.16
2019-01-25T03:43:35.663Z,3.19
2019-01-25T03:46:05.724Z,3.10
2019-01-25T03:48:35.231Z,3.09
2019-01-25T03:51:04.868Z,3.19
2019-01-25T03:53:34.409Z,3.25
2019-01-25T03:56:03.993Z,3.33
2019-01-25T03:58:34.449Z,3.35
2019-01-25T04:01:03.939Z,3.42
2019-01-25T04:03:33.438Z,3.46
2019-01-25T04:06:02.954Z,3.50
2019-01-25T04:08:32.423Z,3.49
2019-01-25T04:11:03.933Z,3.51
2019-01-25T04:13:33.997Z,3.38
2019-01-25T04:16:03.627Z,3.12
2019-01-25T04:18:33.116Z,3.10
2019-01-25T04:21:02.624Z,3.01
2019-01-25T04:23:32.122Z,2.97
2019-01-25T04:26:01.642Z,2.99
2019-01-25T04:28:31.107Z,2.83
2019-01-25T04:31:02.055Z,2.79
2019-01-25T04:33:31.564Z,2.80
2019-01-25T04:36:01.037Z,2.70
2019-01-25T04:38:30.589Z,2.55
2019-01-25T04:41:00.104Z,2.73
2019-01-25T04:43:29.648Z,2.67
2019-01-25T04:45:59.208Z,2.74
2019-01-25T04:48:28.704Z,2.70
2019-01-25T04:50:58.810Z,2.85
2019-01-25T04:53:29.898Z,2.83
2019-01-25T04:56:00.227Z,2.95
2019-01-25T04:58:29.866Z,3.04
2019-01-25T05:01:08.096Z,2.72
2019-01-25T05:03:37.758Z,2.63
2019-01-25T05:06:08.073Z,2.65
2019-01-25T05:08:37.818Z,2.75
2019-01-25T05:11:20.030Z,2.80
2019-01-25T05:13:48.186Z,2.86
2019-01-25T05:16:17.771Z,2.98
2019-01-25T05:18:47.281Z,3.02
2019-01-25T05:21:24.604Z,3.07
2019-01-25T05:23:54.127Z,3.15
2019-01-25T05:26:23.615Z,3.19
2019-01-25T05:28:53.106Z,3.25
2019-01-25T05:31:26.130Z,3.33
2019-01-25T05:33:57.047Z,3.33
2019-01-25T05:36:26.578Z,3.26
2019-01-25T05:38:56.114Z,3.11
2019-01-25T05:41:28.673Z,3.00
2019-01-25T05:43:56.832Z,2.77
2019-01-25T05:46:26.362Z,2.91
2019-01-25T05:48:55.867Z,2.93
2019-01-25T05:51:25.392Z,2.77
2019-01-25T05:53:54.917Z,2.79
2019-01-25T05:56:24.612Z,2.89
2019-01-25T05:58:54.068Z,2.76
2019-01-25T06:01:23.536Z,2.64
2019-01-25T06:03:53.041Z,2.60
2019-01-25T06:06:22.567Z,2.49
2019-01-25T06:08:52.039Z,2.40
2019-01-25T06:11:21.519Z,2.55
2019-01-25T06:13:50.998Z,2.44
2019-01-25T06:16:20.444Z,2.41
2019-01-25T06:18:49.919Z,2.50
2019-01-25T06:21:19.383Z,2.44
2019-01-25T06:23:50.420Z,2.46
2019-01-25T06:26:20.032Z,2.62
2019-01-25T06:28:52.692Z,2.70
2019-01-25T06:31:22.348Z,2.82
2019-01-25T06:33:51.832Z,2.89
2019-01-25T06:36:21.436Z,2.88
2019-01-25T06:38:50.921Z,2.89
2019-01-25T06:41:20.495Z,2.93
2019-01-25T06:43:50.026Z,2.93
2019-01-25T06:46:19.570Z,2.90
2019-01-25T06:48:49.068Z,3.01
2019-01-25T06:51:18.614Z,3.05
2019-01-25T06:53:48.162Z,3.09
2019-01-25T06:56:17.686Z,3.26
2019-01-25T06:59:09.167Z,3.26
2019-01-25T07:01:56.268Z,3.29
2019-01-25T07:04:25.771Z,3.30
2019-01-25T07:06:55.270Z,3.42
2019-01-25T07:09:24.736Z,3.49
2019-01-25T07:11:54.407Z,3.53
2019-01-25T07:14:23.895Z,3.49
2019-01-25T07:16:53.382Z,3.48
2019-01-25T07:19:22.898Z,3.40
2019-01-25T07:21:52.416Z,3.43
2019-01-25T07:24:21.892Z,3.44
2019-01-25T07:26:51.575Z,3.50
2019-01-25T07:29:21.074Z,3.49
2019-01-25T07:31:50.546Z,3.37
2019-01-25T07:34:19.970Z,3.48
2019-01-25T07:36:49.482Z,3.49
2019-01-25T07:39:26.825Z,3.41
2019-01-25T07:41:59.413Z,3.50
2019-01-25T07:44:27.618Z,3.49
2019-01-25T07:46:57.189Z,3.48
2019-01-25T07:49:26.673Z,3.47
2019-01-25T07:51:56.160Z,3.35
2019-01-25T07:54:25.653Z,3.30
2019-01-25T07:56:55.358Z,3.38
2019-01-25T07:59:24.926Z,3.34
2019-01-25T08:01:54.517Z,3.27
2019-01-25T08:04:24.038Z,3.13
2019-01-25T08:06:53.520Z,3.26
2019-01-25T08:09:23.056Z,3.29
2019-01-25T08:11:52.881Z,3.20
2019-01-25T08:14:22.402Z,3.25
2019-01-25T08:16:51.885Z,3.29
2019-01-25T08:19:21.389Z,3.15
2019-01-25T08:21:50.893Z,3.03
2019-01-25T08:24:20.409Z,2.95
2019-01-25T08:26:49.900Z,2.95
2019-01-25T08:29:19.449Z,2.84
2019-01-25T08:31:49.218Z,2.77
2019-01-25T08:34:18.908Z,2.74
2019-01-25T08:36:48.445Z,2.66
2019-01-25T08:39:17.932Z,2.77
2019-01-25T08:41:47.402Z,2.90
2019-01-25T08:44:16.908Z,2.85
2019-01-25T08:46:46.429Z,2.91
2019-01-25T08:49:16.161Z,2.91
2019-01-25T08:51:45.834Z,2.86
2019-01-25T08:54:15.674Z,2.78
2019-01-25T08:56:45.217Z,2.83
2019-01-25T08:59:14.775Z,2.83
2019-01-25T09:01:44.281Z,2.83
2019-01-25T09:04:13.787Z,2.62
2019-01-25T09:06:43.302Z,2.11
2019-01-25T09:09:13.080Z,2.30
2019-01-25T09:11:42.587Z,2.24
2019-01-25T09:14:12.105Z,2.08
2019-01-25T09:16:41.702Z,1.92
2019-01-25T09:19:11.196Z,2.00
2019-01-25T09:21:40.672Z,1.90
2019-01-25T09:24:10.259Z,1.93
2019-01-25T09:26:39.714Z,1.87
2019-01-25T09:29:09.187Z,2.01
2019-01-25T09:31:38.711Z,2.16
2019-01-25T09:34:08.222Z,2.14
2019-01-25T09:36:37.746Z,1.83
2019-01-25T09:39:09.760Z,1.67
2019-01-25T09:41:39.653Z,1.49
2019-01-25T09:44:09.160Z,1.58
2019-01-25T09:46:38.609Z,1.50
2019-01-25T09:49:08.100Z,1.59
2019-01-25T09:51:38.199Z,1.60
2019-01-25T09:54:07.730Z,1.54
2019-01-25T09:56:37.238Z,1.60
2019-01-25T09:59:07.088Z,1.69
2019-01-25T10:01:36.676Z,1.91
2019-01-25T10:04:06.982Z,2.01
2019-01-25T10:06:36.505Z,2.03
2019-01-25T10:09:09.024Z,2.12
2019-01-25T10:11:38.484Z,2.26
2019-01-25T10:14:08.160Z,2.38
2019-01-25T10:16:37.693Z,2.33
2019-01-25T10:19:07.209Z,1.99
2019-01-25T10:21:39.090Z,1.91
2019-01-25T10:24:08.560Z,1.48
2019-01-25T10:26:38.112Z,1.49
2019-01-25T10:29:07.630Z,1.50
2019-01-25T10:31:37.264Z,1.51
2019-01-25T10:34:06.789Z,1.50
2019-01-25T10:36:36.255Z,1.57
2019-01-25T10:39:08.669Z,1.57
2019-01-25T10:41:38.148Z,1.41
2019-01-25T10:44:09.152Z,1.30
2019-01-25T10:46:38.657Z,1.27
2019-01-25T10:49:10.707Z,1.22
2019-01-25T10:51:40.312Z,1.49
2019-01-25T10:54:10.119Z,1.27
2019-01-25T10:56:41.938Z,1.47
2019-01-25T10:59:10.855Z,1.55
2019-01-25T11:01:40.360Z,1.65
2019-01-25T11:04:12.553Z,1.77
2019-01-25T11:06:42.048Z,1.87
2019-01-25T11:09:11.558Z,1.88
2019-01-25T11:11:41.059Z,2.05
2019-01-25T11:14:10.672Z,1.97
2019-01-25T11:16:40.123Z,1.99
2019-01-25T11:19:09.614Z,2.04
2019-01-25T11:21:39.180Z,2.20
2019-01-25T11:24:08.675Z,2.30
2019-01-25T11:26:38.200Z,2.25
2019-01-25T11:29:07.724Z,2.28
2019-01-25T11:31:37.192Z,2.34
2019-01-25T11:34:06.712Z,2.36
2019-01-25T11:36:36.165Z,2.28
2019-01-25T11:39:09.696Z,2.25
2019-01-25T11:41:39.466Z,2.35
2019-01-25T11:44:08.978Z,2.46
2019-01-25T11:46:38.575Z,2.59
2019-01-25T11:49:08.113Z,2.72
2019-01-25T11:51:37.598Z,2.82
2019-01-25T11:54:07.098Z,2.89
2019-01-25T11:56:36.720Z,2.83
2019-01-25T11:59:06.198Z,2.71
2019-01-25T12:01:35.686Z,2.59
2019-01-25T12:04:06.098Z,2.45
2019-01-25T12:06:36.111Z,2.40
2019-01-25T12:09:09.538Z,2.34
2019-01-25T12:11:39.104Z,2.26
2019-01-25T12:14:08.611Z,2.23
2019-01-25T12:16:38.203Z,2.31
2019-01-25T12:19:07.790Z,2.39
2019-01-25T12:21:37.532Z,2.32
2019-01-25T12:24:10.616Z,2.32
2019-01-25T12:26:40.602Z,2.38
2019-01-25T12:29:10.283Z,2.35
2019-01-25T12:31:40.695Z,2.30
2019-01-25T12:34:12.290Z,2.23
2019-01-25T12:36:43.968Z,2.18
2019-01-25T12:39:14.312Z,2.10
2019-01-25T12:41:46.887Z,2.12
2019-01-25T12:44:16.636Z,2.04
2019-01-25T12:46:46.368Z,2.13
2019-01-25T12:49:15.965Z,2.19
2019-01-25T12:51:52.168Z,2.28
2019-01-25T12:54:21.678Z,2.00
2019-01-25T12:56:51.498Z,1.95
2019-01-25T12:59:21.149Z,1.93
2019-01-25T13:01:51.738Z,1.98
2019-01-25T13:04:21.330Z,1.96
2019-01-25T13:06:50.995Z,1.95
2019-01-25T13:09:20.844Z,2.09
2019-01-25T13:11:50.327Z,2.03
2019-01-25T13:14:19.987Z,2.03
2019-01-25T13:16:50.762Z,2.05
2019-01-25T13:19:20.345Z,2.10
2019-01-25T13:21:50.103Z,2.15
2019-01-25T13:24:19.873Z,2.09
2019-01-25T13:26:49.385Z,2.13
2019-01-25T13:29:25.858Z,2.17
2019-01-25T13:31:50.474Z,2.13
2019-01-25T13:34:20.331Z,2.27
2019-01-25T13:36:56.772Z,2.46
2019-01-25T13:39:21.429Z,2.59
2019-01-25T13:41:51.180Z,2.67
2019-01-25T13:44:20.945Z,2.73
2019-01-25T13:46:50.426Z,2.76
2019-01-25T13:49:20.158Z,2.86
2019-01-25T13:51:49.800Z,2.92
2019-01-25T13:54:19.419Z,2.93
2019-01-25T13:56:49.050Z,2.88
2019-01-25T13:59:18.582Z,2.72
2019-01-25T14:01:48.184Z,2.59
2019-01-25T14:04:17.726Z,2.32
2019-01-25T14:06:47.354Z,2.11
2019-01-25T14:09:17.124Z,1.97
2019-01-25T14:11:46.590Z,1.82
2019-01-25T14:14:16.223Z,1.84
2019-01-25T14:16:46.018Z,1.96
2019-01-25T14:19:15.526Z,1.84
2019-01-25T14:21:45.127Z,1.66
2019-01-25T14:24:16.581Z,1.74
2019-01-25T14:26:46.167Z,1.72
2019-01-25T14:29:15.672Z,1.78
2019-01-25T14:31:45.234Z,1.78
2019-01-25T14:34:14.774Z,1.75
2019-01-25T14:36:44.276Z,1.62
2019-01-25T14:39:13.781Z,1.58
2019-01-25T14:41:43.294Z,1.61
2019-01-25T14:44:12.879Z,1.73
2019-01-25T14:46:42.487Z,1.66
2019-01-25T14:49:12.261Z,1.54
2019-01-25T14:51:41.810Z,1.55
2019-01-25T14:54:11.481Z,1.56
2019-01-25T14:56:40.992Z,1.63
2019-01-25T14:59:10.697Z,1.77
2019-01-25T15:01:40.767Z,1.90
2019-01-25T15:04:10.255Z,1.97
2019-01-25T15:06:39.895Z,1.95
2019-01-25T15:09:10.818Z,1.92
2019-01-25T15:11:40.359Z,1.91
2019-01-25T15:14:10.665Z,1.82
2019-01-25T15:16:41.133Z,1.78
2019-01-25T15:19:10.845Z,1.81
2019-01-25T15:21:40.572Z,1.72
2019-01-25T15:24:12.059Z,1.86
2019-01-25T15:26:41.592Z,1.90
2019-01-25T15:29:11.219Z,1.73
2019-01-25T15:31:40.797Z,1.74
2019-01-25T15:34:10.419Z,1.73
2019-01-25T15:36:39.980Z,1.49
2019-01-25T15:39:11.013Z,1.62
2019-01-25T15:41:40.719Z,1.65
2019-01-25T15:44:10.401Z,1.80
2019-01-25T15:46:39.930Z,1.85
2019-01-25T15:49:11.443Z,1.90
2019-01-25T15:51:40.964Z,1.63
2019-01-25T15:54:10.545Z,1.63
2019-01-25T15:56:40.345Z,1.51
2019-01-25T15:59:09.899Z,1.60
2019-01-25T16:01:39.600Z,1.49
2019-01-25T16:04:09.226Z,1.51
2019-01-25T16:06:38.775Z,1.69
2019-01-25T16:09:14.142Z,1.77
2019-01-25T16:11:41.134Z,1.83
2019-01-25T16:14:17.926Z,1.69
2019-01-25T16:16:44.643Z,1.72
2019-01-25T16:19:14.168Z,1.75
2019-01-25T16:21:44.045Z,1.87
2019-01-25T16:24:13.684Z,1.87
2019-01-25T16:26:44.394Z,1.87
2019-01-25T16:29:14.336Z,1.93
2019-01-25T16:31:44.140Z,1.95
2019-01-25T16:34:13.779Z,2.00
2019-01-25T16:36:43.274Z,2.06
2019-01-25T16:39:12.856Z,2.10
2019-01-25T16:41:42.349Z,2.10
2019-01-25T16:44:11.934Z,2.10
2019-01-25T16:46:41.576Z,2.14
2019-01-25T16:49:11.168Z,2.25
2019-01-25T16:51:40.772Z,2.32
2019-01-25T16:54:10.548Z,2.19
2019-01-25T16:56:41.209Z,2.23
2019-01-25T16:59:10.797Z,2.27
2019-01-25T17:01:41.651Z,2.35
2019-01-25T17:04:14.209Z,2.44
2019-01-25T17:06:43.733Z,2.38
2019-01-25T17:09:13.472Z,2.27
2019-01-25T17:11:42.982Z,2.24
2019-01-25T17:14:12.931Z,2.18
2019-01-25T17:16:42.779Z,2.10
2019-01-25T17:19:12.408Z,2.07
2019-01-25T17:21:42.871Z,2.05
2019-01-25T17:24:12.499Z,1.99
2019-01-25T17:26:41.977Z,1.95
2019-01-25T17:29:11.610Z,2.11
2019-01-25T17:31:43.196Z,2.12
2019-01-25T17:34:12.738Z,2.19
2019-01-25T17:36:42.302Z,2.21
2019-01-25T17:39:15.680Z,2.19
2019-01-25T17:41:45.280Z,2.15
2019-01-25T17:44:14.822Z,2.21
2019-01-25T17:46:44.490Z,2.22
2019-01-25T17:49:14.177Z,2.18
2019-01-25T17:51:45.610Z,2.27
2019-01-25T17:54:15.333Z,2.30
2019-01-25T17:56:44.930Z,2.32
2019-01-25T17:59:15.427Z,2.26
2019-01-25T18:01:44.948Z,2.28
2019-01-25T18:04:14.536Z,2.25
2019-01-25T18:06:44.058Z,2.35
2019-01-25T18:09:13.534Z,2.37
2019-01-25T18:11:43.142Z,2.38
2019-01-25T18:14:12.646Z,2.42
2019-01-25T18:16:42.198Z,2.39
2019-01-25T18:19:11.805Z,2.22
2019-01-25T18:21:44.517Z,2.27
2019-01-25T18:24:14.162Z,2.30
2019-01-25T18:26:43.657Z,2.21
2019-01-25T18:29:24.991Z,2.05
2019-01-25T18:31:54.966Z,2.11
2019-01-25T18:34:24.493Z,2.06
2019-01-25T18:36:54.028Z,2.09
2019-01-25T18:39:23.626Z,1.93
2019-01-25T18:41:53.162Z,1.79
2019-01-25T18:44:22.726Z,1.83
2019-01-25T18:46:52.629Z,1.86
2019-01-25T18:49:22.249Z,1.84
2019-01-25T18:51:52.151Z,1.86
2019-01-25T18:54:21.701Z,1.84
2019-01-25T18:56:53.776Z,1.84
2019-01-25T18:59:23.284Z,1.76
2019-01-25T19:01:52.816Z,1.77
2019-01-25T19:04:22.401Z,1.76
2019-01-25T19:06:51.961Z,1.74
2019-01-25T19:09:21.903Z,1.72
2019-01-25T19:11:51.987Z,1.72
2019-01-25T19:14:21.513Z,1.61
2019-01-25T19:16:51.061Z,1.39
2019-01-25T19:19:21.331Z,1.40
2019-01-25T19:21:50.834Z,1.48
2019-01-25T19:24:20.739Z,1.53
2019-01-25T19:26:50.384Z,1.38
2019-01-25T19:29:19.890Z,1.40
2019-01-25T19:31:49.433Z,1.37
2019-01-25T19:34:20.535Z,1.56
2019-01-25T19:36:50.173Z,1.67
2019-01-25T19:39:19.660Z,1.80
2019-01-25T19:41:49.147Z,1.82
2019-01-25T19:44:19.357Z,1.84
2019-01-25T19:46:49.230Z,1.90
2019-01-25T19:49:21.044Z,1.88
2019-01-25T19:51:50.723Z,1.84
2019-01-25T19:54:20.414Z,1.87
2019-01-25T19:56:50.032Z,1.86
2019-01-25T19:59:19.577Z,1.93
2019-01-25T20:01:49.458Z,1.89
2019-01-25T20:04:19.131Z,1.95
2019-01-25T20:06:48.649Z,1.98
2019-01-25T20:09:18.850Z,2.00
2019-01-25T20:11:48.403Z,2.02
2019-01-25T20:14:18.019Z,2.01
2019-01-25T20:16:47.853Z,2.05
2019-01-25T20:19:17.483Z,1.88
2019-01-25T20:21:47.018Z,1.82
2019-01-25T20:24:17.826Z,1.82
2019-01-25T20:26:47.356Z,1.88
2019-01-25T20:29:16.985Z,1.70
2019-01-25T20:31:46.479Z,1.58
2019-01-25T20:34:16.441Z,1.54
2019-01-25T20:36:46.013Z,1.63
2019-01-25T20:39:15.585Z,1.68
2019-01-25T20:41:45.149Z,1.63
2019-01-25T20:44:15.088Z,1.70
2019-01-25T20:46:44.670Z,1.71
2019-01-25T20:49:14.588Z,1.54
2019-01-25T20:51:44.207Z,1.43
2019-01-25T20:54:13.708Z,1.27
2019-01-25T20:56:43.229Z,1.32
2019-01-25T20:59:12.697Z,1.33
2019-01-25T21:01:42.165Z,1.43
2019-01-25T21:04:11.683Z,1.45
2019-01-25T21:06:41.201Z,1.57
2019-01-25T21:09:11.831Z,1.58
2019-01-25T21:11:41.315Z,1.53
2019-01-25T21:14:10.786Z,1.55
2019-01-25T21:16:40.279Z,1.59
2019-01-25T21:19:09.806Z,1.54
2019-01-25T21:21:39.293Z,1.38
2019-01-25T21:24:10.079Z,1.39
2019-01-25T21:26:39.754Z,1.37
2019-01-25T21:29:09.225Z,1.31
2019-01-25T21:31:38.707Z,1.22
2019-01-25T21:34:08.245Z,1.13
2019-01-25T21:36:37.748Z,1.17
2019-01-25T21:39:09.583Z,1.11
2019-01-25T21:41:39.130Z,1.05
2019-01-25T21:44:08.605Z,1.10
2019-01-25T21:46:40.177Z,1.10
2019-01-25T21:49:09.534Z,1.07
2019-01-25T21:51:39.230Z,1.16
2019-01-25T21:54:08.682Z,1.23
2019-01-25T21:56:38.139Z,1.27
2019-01-25T21:59:07.645Z,1.26
2019-01-25T22:01:37.140Z,1.13
2019-01-25T22:04:06.754Z,1.11
2019-01-25T22:06:36.247Z,1.08
2019-01-25T22:09:08.794Z,1.04
2019-01-25T22:11:38.365Z,1.07
2019-01-25T22:14:07.860Z,1.12
2019-01-25T22:16:37.333Z,0.83
2019-01-25T22:19:06.856Z,0.65
2019-01-25T22:21:37.048Z,0.54
2019-01-25T22:24:06.665Z,0.58
2019-01-25T22:26:36.136Z,0.54
2019-01-25T22:29:05.677Z,0.61
2019-01-25T22:31:35.138Z,0.54
2019-01-25T22:34:04.753Z,0.59
2019-01-25T22:36:34.260Z,0.55
2019-01-25T22:39:05.506Z,0.48
2019-01-25T22:41:35.057Z,0.36
2019-01-25T22:44:04.625Z,0.43
2019-01-25T22:46:34.161Z,0.19
2019-01-25T22:49:03.608Z,0.03
2019-01-25T22:51:33.067Z,-0.03
2019-01-25T22:54:02.561Z,-0.05
2019-01-25T22:56:32.094Z,-0.01
2019-01-25T22:59:01.577Z,0.01
2019-01-25T23:01:33.442Z,0.04
2019-01-25T23:04:43.880Z,-0.02
2019-01-25T23:07:28.311Z,-0.05
2019-01-25T23:10:02.973Z,-0.09
2019-01-25T23:12:32.404Z,-0.05
2019-01-25T23:15:01.963Z,-0.04
2019-01-25T23:17:31.496Z,-0.11
2019-01-25T23:20:00.989Z,-0.07
2019-01-25T23:22:30.632Z,-0.04
2019-01-25T23:25:00.137Z,-0.05
2019-01-25T23:27:29.634Z,-0.05
2019-01-25T23:29:59.101Z,-0.09
2019-01-25T23:32:28.600Z,-0.13
2019-01-25T23:34:58.150Z,-0.30
2019-01-25T23:37:27.604Z,-0.27
2019-01-25T23:39:57.130Z,-0.29
2019-01-25T23:42:26.602Z,-0.47
2019-01-25T23:44:56.142Z,-0.59
2019-01-25T23:47:25.633Z,-0.64
2019-01-25T23:49:55.109Z,-0.68
2019-01-25T23:52:24.641Z,-0.64
2019-01-25T23:54:54.132Z,-0.77
2019-01-25T23:57:23.644Z,-0.83
2019-01-25T23:59:53.105Z,-0.78
